createdAt,value
2023-05-07T00:00:29.983Z,23.70
2023-05-07T00:12:30.453Z,18.20
2023-05-07T00:24:30.894Z,20.20
2023-05-07T00:36:31.350Z,21.60
2023-05-07T00:48:32.353Z,22.80
2023-05-07T01:00:32.274Z,20.90
2023-05-07T01:12:32.730Z,18.30
2023-05-07T01:24:33.180Z,19.10
2023-05-07T01:36:33.623Z,23.70
2023-05-07T01:48:34.086Z,20.40
2023-05-07T02:00:34.516Z,17.10
2023-05-07T02:12:35.022Z,17.80
2023-05-07T02:24:35.460Z,18.60
2023-05-07T02:36:35.905Z,18.60
2023-05-07T02:48:36.347Z,18.00
2023-05-07T03:00:36.792Z,18.40
2023-05-07T03:12:37.304Z,14.80
2023-05-07T03:24:37.725Z,14.80
2023-05-07T03:36:38.136Z,15.90
2023-05-07T03:48:38.601Z,13.30
2023-05-07T04:00:39.095Z,14.90
2023-05-07T04:12:39.565Z,15.80
2023-05-07T04:24:39.970Z,15.40
2023-05-07T04:36:40.413Z,14.00
2023-05-07T04:48:40.882Z,12.80
2023-05-07T05:00:41.375Z,14.20
2023-05-07T05:12:41.797Z,13.50
2023-05-07T05:24:42.227Z,13.20
2023-05-07T05:36:42.690Z,10.80
2023-05-07T05:48:43.164Z,10.50
2023-05-07T06:00:43.619Z,8.80
2023-05-07T06:12:44.085Z,8.60
2023-05-07T06:24:44.526Z,7.10
2023-05-07T06:36:44.981Z,5.40
2023-05-07T06:48:45.448Z,7.10
2023-05-07T07:00:45.881Z,6.40
2023-05-07T07:12:46.357Z,8.10
2023-05-07T07:24:46.794Z,11.40
2023-05-07T07:36:47.268Z,11.80
2023-05-07T07:48:47.664Z,8.90
2023-05-07T08:00:48.147Z,11.40
2023-05-07T08:12:48.644Z,10.50
2023-05-07T08:24:49.056Z,10.80
2023-05-07T08:36:49.501Z,10.70
2023-05-07T08:48:49.986Z,8.50
2023-05-07T09:00:50.446Z,9.30
2023-05-07T09:12:50.872Z,8.90
2023-05-07T09:24:51.344Z,9.40
2023-05-07T09:36:51.781Z,9.80
2023-05-07T09:48:52.291Z,9.50
2023-05-07T10:00:52.720Z,8.50
2023-05-07T10:12:53.183Z,11.80
2023-05-07T10:24:53.598Z,11.50
2023-05-07T10:36:54.075Z,10.30
2023-05-07T10:48:54.521Z,8.80
2023-05-07T11:00:54.951Z,8.20
2023-05-07T11:12:55.522Z,9.70
2023-05-07T11:24:55.900Z,11.20
2023-05-07T11:36:56.337Z,9.70
2023-05-07T11:48:56.803Z,10.30
2023-05-07T12:00:57.231Z,10.00
2023-05-07T12:12:57.946Z,9.40
2023-05-07T12:24:58.261Z,10.00
2023-05-07T12:36:58.613Z,8.20
2023-05-07T12:48:59.080Z,8.20
2023-05-07T13:01:00.597Z,7.00
2023-05-07T13:12:59.989Z,8.20
2023-05-07T13:25:00.421Z,9.40
2023-05-07T13:37:00.922Z,10.20
2023-05-07T13:49:01.358Z,10.00
2023-05-07T14:01:01.868Z,9.30
2023-05-07T14:13:02.274Z,10.50
2023-05-07T14:25:06.776Z,7.40
2023-05-07T14:37:03.225Z,13.80
2023-05-07T14:49:03.650Z,8.80
2023-05-07T15:01:04.083Z,10.00
2023-05-07T15:13:04.549Z,10.60
2023-05-07T15:25:05.038Z,8.70
2023-05-07T15:37:05.437Z,11.90
2023-05-07T15:49:05.945Z,10.40
2023-05-07T16:01:06.416Z,9.70
2023-05-07T16:13:06.848Z,10.00
2023-05-07T16:25:07.300Z,11.20
2023-05-07T16:37:07.731Z,9.80
2023-05-07T16:49:08.160Z,10.50
2023-05-07T17:01:08.667Z,7.80
2023-05-07T17:13:09.123Z,6.50
2023-05-07T17:25:09.561Z,6.70
2023-05-07T17:37:09.988Z,6.60
2023-05-07T17:49:10.437Z,6.10
2023-05-07T18:01:10.976Z,6.20
2023-05-07T18:13:11.365Z,6.30
2023-05-07T18:25:11.804Z,6.30
2023-05-07T18:37:12.294Z,8.80
2023-05-07T18:49:12.706Z,6.60
2023-05-07T19:01:13.208Z,5.80
2023-05-07T19:13:13.671Z,7.30
2023-05-07T19:25:14.745Z,8.90
2023-05-07T19:37:14.518Z,8.00
2023-05-07T19:49:15.002Z,7.30
2023-05-07T20:01:15.461Z,10.10
2023-05-07T20:13:15.943Z,12.30
2023-05-07T20:25:16.356Z,10.30
2023-05-07T20:37:16.779Z,10.00
2023-05-07T20:49:17.289Z,14.00
2023-05-07T21:01:17.753Z,12.90
2023-05-07T21:13:18.188Z,16.40
2023-05-07T21:25:18.749Z,13.90
2023-05-07T21:37:19.058Z,17.70
2023-05-07T21:49:19.554Z,16.70
2023-05-07T22:01:20.007Z,18.60
2023-05-07T22:13:20.454Z,23.00
2023-05-07T22:25:20.862Z,24.60
2023-05-07T22:37:21.354Z,28.20
2023-05-07T22:49:21.790Z,24.60
2023-05-07T23:01:22.268Z,24.10
2023-05-07T23:13:22.809Z,25.60
2023-05-07T23:25:23.162Z,31.10
2023-05-07T23:37:23.627Z,30.40
2023-05-07T23:49:24.077Z,31.50
